sensor_id;sensor_type;location;lat;lon;timestamp;pressure;altitude;pressure_sealevel;temperature;humidity
5413;BME280;2729;50.056;8.678;2023-02-23T00:01:36;99927.50;;;9.96;100.00
5413;BME280;2729;50.056;8.678;2023-02-23T00:04:02;99938.66;;;10.02;100.00
5413;BME280;2729;50.056;8.678;2023-02-23T00:06:30;99937.78;;;10.01;100.00
5413;BME280;2729;50.056;8.678;2023-02-23T00:08:57;99934.41;;;9.97;100.00
5413;BME280;2729;50.056;8.678;2023-02-23T00:11:26;99945.75;;;9.96;100.00
5413;BME280;2729;50.056;8.678;2023-02-23T00:13:53;99935.34;;;9.95;100.00
5413;BME280;2729;50.056;8.678;2023-02-23T00:16:21;99934.38;;;9.99;100.00
5413;BME280;2729;50.056;8.678;2023-02-23T00:18:53;99938.66;;;10.02;100.00
5413;BME280;2729;50.056;8.678;2023-02-23T00:21:28;99940.66;;;9.92;100.00
5413;BME280;2729;50.056;8.678;2023-02-23T00:24:06;99934.41;;;9.97;100.00
5413;BME280;2729;50.056;8.678;2023-02-23T00:26:35;99939.81;;;9.91;100.00
5413;BME280;2729;50.056;8.678;2023-02-23T00:29:03;99941.31;;;10.00;100.00
5413;BME280;2729;50.056;8.678;2023-02-23T00:31:30;99936.97;;;9.99;100.00
5413;BME280;2729;50.056;8.678;2023-02-23T00:34:01;99935.97;;;10.05;100.00
5413;BME280;2729;50.056;8.678;2023-02-23T00:36:31;99937.84;;;9.99;100.00
5413;BME280;2729;50.056;8.678;2023-02-23T00:39:01;99933.66;;;9.94;100.00
5413;BME280;2729;50.056;8.678;2023-02-23T00:41:27;99935.97;;;10.05;100.00
5413;BME280;2729;50.056;8.678;2023-02-23T00:43:56;99941.84;;;9.80;100.00
5413;BME280;2729;50.056;8.678;2023-02-23T00:46:24;99934.41;;;9.97;100.00
5413;BME280;2729;50.056;8.678;2023-02-23T00:48:55;99937.84;;;9.99;100.00
5413;BME280;2729;50.056;8.678;2023-02-23T00:51:22;99942.25;;;9.97;100.00
5413;BME280;2729;50.056;8.678;2023-02-23T00:53:52;99936.16;;;9.97;100.00
5413;BME280;2729;50.056;8.678;2023-02-23T00:56:18;99945.63;;;10.01;100.00
5413;BME280;2729;50.056;8.678;2023-02-23T00:58:44;99941.25;;;10.02;100.00
5413;BME280;2729;50.056;8.678;2023-02-23T01:01:12;99936.03;;;10.02;100.00
5413;BME280;2729;50.056;8.678;2023-02-23T01:03:40;99937.75;;;10.03;100.00
5413;BME280;2729;50.056;8.678;2023-02-23T01:06:08;99936.78;;;10.07;100.00
5413;BME280;2729;50.056;8.678;2023-02-23T01:08:40;99943.59;;;10.11;100.00
5413;BME280;2729;50.056;8.678;2023-02-23T01:11:09;99931.69;;;10.02;100.00
5413;BME280;2729;50.056;8.678;2023-02-23T01:13:36;99939.38;;;10.07;100.00
5413;BME280;2729;50.056;8.678;2023-02-23T01:16:04;99932.38;;;10.09;100.00
5413;BME280;2729;50.056;8.678;2023-02-23T01:18:32;99932.72;;;9.96;100.00
5413;BME280;2729;50.056;8.678;2023-02-23T01:21:02;99936.69;;;10.10;100.00
5413;BME280;2729;50.056;8.678;2023-02-23T01:23:31;99937.16;;;9.93;100.00
5413;BME280;2729;50.056;8.678;2023-02-23T01:25:58;99931.72;;;10.00;100.00
5413;BME280;2729;50.056;8.678;2023-02-23T01:28:24;99931.28;;;10.16;100.00
5413;BME280;2729;50.056;8.678;2023-02-23T01:30:50;99934.34;;;10.00;100.00
5413;BME280;2729;50.056;8.678;2023-02-23T01:33:16;99939.13;;;10.16;100.00
5413;BME280;2729;50.056;8.678;2023-02-23T01:35:44;99941.72;;;10.16;100.00
5413;BME280;2729;50.056;8.678;2023-02-23T01:38:21;99935.59;;;10.17;100.00
5413;BME280;2729;50.056;8.678;2023-02-23T01:40:47;99938.13;;;10.21;100.00
5413;BME280;2729;50.056;8.678;2023-02-23T01:43:18;99940.78;;;10.20;100.00
5413;BME280;2729;50.056;8.678;2023-02-23T01:45:54;99937.22;;;10.22;100.00
5413;BME280;2729;50.056;8.678;2023-02-23T01:48:27;99939.94;;;10.18;100.00
5413;BME280;2729;50.056;8.678;2023-02-23T01:51:02;99940.69;;;10.23;100.00
5413;BME280;2729;50.056;8.678;2023-02-23T01:53:30;99938.13;;;10.21;100.00
5413;BME280;2729;50.056;8.678;2023-02-23T01:56:10;99937.94;;;10.27;100.00
5413;BME280;2729;50.056;8.678;2023-02-23T01:58:43;99938.75;;;10.29;100.00
5413;BME280;2729;50.056;8.678;2023-02-23T02:01:10;99942.97;;;10.34;100.00
5413;BME280;2729;50.056;8.678;2023-02-23T02:03:49;99941.09;;;10.39;100.00
5413;BME280;2729;50.056;8.678;2023-02-23T02:06:21;99937.28;;;10.50;100.00
5413;BME280;2729;50.056;8.678;2023-02-23T02:08:53;99940.75;;;10.51;100.00
5413;BME280;2729;50.056;8.678;2023-02-23T02:11:22;99931.06;;;10.54;100.00
5413;BME280;2729;50.056;8.678;2023-02-23T02:14:13;99927.72;;;10.51;100.00
5413;BME280;2729;50.056;8.678;2023-02-23T02:22:34;99923.44;;;10.48;100.00
5413;BME280;2729;50.056;8.678;2023-02-23T02:25:48;99930.50;;;10.45;100.00
5413;BME280;2729;50.056;8.678;2023-02-23T02:39:58;99928.88;;;10.41;100.00
5413;BME280;2729;50.056;8.678;2023-02-23T02:48:21;99925.44;;;10.39;100.00
5413;BME280;2729;50.056;8.678;2023-02-23T02:50:57;99920.25;;;10.37;100.00
5413;BME280;2729;50.056;8.678;2023-02-23T02:53:37;99911.38;;;10.44;100.00
5413;BME280;2729;50.056;8.678;2023-02-23T02:56:06;99912.38;;;10.40;100.00
5413;BME280;2729;50.056;8.678;2023-02-23T02:58:36;99908.69;;;10.47;100.00
5413;BME280;2729;50.056;8.678;2023-02-23T03:01:11;99913.34;;;10.36;100.00
5413;BME280;2729;50.056;8.678;2023-02-23T03:03:57;99911.34;;;10.46;100.00
5413;BME280;2729;50.056;8.678;2023-02-23T03:06:47;99907.72;;;10.50;100.00
5413;BME280;2729;50.056;8.678;2023-02-23T03:09:44;99903.50;;;10.46;100.00
5413;BME280;2729;50.056;8.678;2023-02-23T03:12:58;99904.50;;;10.42;100.00
5413;BME280;2729;50.056;8.678;2023-02-23T03:19:04;99907.16;;;10.40;100.00
5413;BME280;2729;50.056;8.678;2023-02-23T03:22:12;99901.91;;;10.42;100.00
5413;BME280;2729;50.056;8.678;2023-02-23T03:25:05;99899.38;;;10.37;100.00
5413;BME280;2729;50.056;8.678;2023-02-23T03:27:56;99914.97;;;10.40;100.00
5413;BME280;2729;50.056;8.678;2023-02-23T03:31:05;99907.16;;;10.40;100.00
5413;BME280;2729;50.056;8.678;2023-02-23T03:36:50;99913.13;;;10.44;100.00
5413;BME280;2729;50.056;8.678;2023-02-23T03:39:42;99918.41;;;10.42;100.00
5413;BME280;2729;50.056;8.678;2023-02-23T03:42:33;99913.38;;;10.35;100.00
5413;BME280;2729;50.056;8.678;2023-02-23T03:45:21;99925.34;;;10.43;100.00
5413;BME280;2729;50.056;8.678;2023-02-23T03:48:09;99924.44;;;10.44;100.00
5413;BME280;2729;50.056;8.678;2023-02-23T03:51:00;99919.63;;;10.29;100.00
5413;BME280;2729;50.056;8.678;2023-02-23T03:53:52;99927.03;;;10.44;100.00
5413;BME280;2729;50.056;8.678;2023-02-23T03:56:43;99927.84;;;10.46;100.00
5413;BME280;2729;50.056;8.678;2023-02-23T03:59:34;99921.94;;;10.40;100.00
5413;BME280;2729;50.056;8.678;2023-02-23T04:02:22;99923.53;;;10.45;100.00
5413;BME280;2729;50.056;8.678;2023-02-23T04:05:17;99924.44;;;10.44;100.00
5413;BME280;2729;50.056;8.678;2023-02-23T04:08:05;99923.53;;;10.45;100.00
5413;BME280;2729;50.056;8.678;2023-02-23T04:11:00;99922.53;;;10.49;100.00
5413;BME280;2729;50.056;8.678;2023-02-23T04:13:49;99919.25;;;10.43;100.00
5413;BME280;2729;50.056;8.678;2023-02-23T04:16:19;99917.22;;;10.52;100.00
5413;BME280;2729;50.056;8.678;2023-02-23T04:18:47;99925.34;;;10.43;100.00
5413;BME280;2729;50.056;8.678;2023-02-23T04:21:13;99927.81;;;10.48;100.00
5413;BME280;2729;50.056;8.678;2023-02-23T04:23:40;99918.94;;;10.53;100.00
5413;BME280;2729;50.056;8.678;2023-02-23T04:26:07;99925.75;;;10.57;100.00
5413;BME280;2729;50.056;8.678;2023-02-23T04:28:33;99919.59;;;10.60;100.00
5413;BME280;2729;50.056;8.678;2023-02-23T04:30:59;99924.00;;;10.58;100.00
5413;BME280;2729;50.056;8.678;2023-02-23T04:33:26;99922.03;;;10.66;100.00
5413;BME280;2729;50.056;8.678;2023-02-23T04:35:53;99927.25;;;10.66;100.00
5413;BME280;2729;50.056;8.678;2023-02-23T04:38:20;99928.13;;;10.65;100.00
5413;BME280;2729;50.056;8.678;2023-02-23T04:40:46;99923.06;;;10.60;100.00
5413;BME280;2729;50.056;8.678;2023-02-23T04:43:12;99933.13;;;10.73;100.00
5413;BME280;2729;50.056;8.678;2023-02-23T04:45:39;99931.50;;;10.69;100.00
5413;BME280;2729;50.056;8.678;2023-02-23T04:48:06;99930.94;;;10.59;100.00
5413;BME280;2729;50.056;8.678;2023-02-23T04:50:32;99927.72;;;10.51;100.00
5413;BME280;2729;50.056;8.678;2023-02-23T04:52:58;99925.53;;;10.65;100.00
5413;BME280;2729;50.056;8.678;2023-02-23T04:55:24;99928.91;;;10.69;100.00
5413;BME280;2729;50.056;8.678;2023-02-23T04:57:56;99928.09;;;10.67;100.00
5413;BME280;2729;50.056;8.678;2023-02-23T05:00:24;99928.91;;;10.69;100.00
5413;BME280;2729;50.056;8.678;2023-02-23T05:02:49;99924.78;;;10.61;100.00
5413;BME280;2729;50.056;8.678;2023-02-23T05:05:16;99937.78;;;10.63;100.00
5413;BME280;2729;50.056;8.678;2023-02-23T05:07:42;99931.47;;;10.70;100.00
5413;BME280;2729;50.056;8.678;2023-02-23T05:10:09;99933.44;;;10.62;100.00
5413;BME280;2729;50.056;8.678;2023-02-23T05:12:35;99933.25;;;10.68;100.00
5413;BME280;2729;50.056;8.678;2023-02-23T05:15:01;99929.75;;;10.69;100.00
5413;BME280;2729;50.056;8.678;2023-02-23T05:17:27;99929.66;;;10.72;100.00
5413;BME280;2729;50.056;8.678;2023-02-23T05:19:53;99939.16;;;10.75;100.00
5413;BME280;2729;50.056;8.678;2023-02-23T05:22:19;99933.06;;;10.74;100.00
5413;BME280;2729;50.056;8.678;2023-02-23T05:24:45;99933.75;;;10.81;100.00
5413;BME280;2729;50.056;8.678;2023-02-23T05:27:13;99934.50;;;10.84;100.00
5413;BME280;2729;50.056;8.678;2023-02-23T05:29:40;99941.53;;;10.82;100.00
5413;BME280;2729;50.056;8.678;2023-02-23T05:32:06;99931.22;;;10.78;100.00
5413;BME280;2729;50.056;8.678;2023-02-23T05:34:32;99938.19;;;10.77;100.00
5413;BME280;2729;50.056;8.678;2023-02-23T05:36:58;99930.78;;;10.63;100.00
5413;BME280;2729;50.056;8.678;2023-02-23T05:39:24;99937.31;;;10.78;100.00
5413;BME280;2729;50.056;8.678;2023-02-23T05:41:50;99933.66;;;10.84;100.00
5413;BME280;2729;50.056;8.678;2023-02-23T05:44:17;99932.69;;;10.86;100.00
5413;BME280;2729;50.056;8.678;2023-02-23T05:46:44;99943.47;;;10.76;100.00
5413;BME280;2729;50.056;8.678;2023-02-23T05:49:10;99933.75;;;10.81;100.00
5413;BME280;2729;50.056;8.678;2023-02-23T05:51:36;99935.53;;;10.79;100.00
5413;BME280;2729;50.056;8.678;2023-02-23T05:54:04;99942.28;;;10.86;100.00
5413;BME280;2729;50.056;8.678;2023-02-23T05:56:30;99939.00;;;10.79;100.00
5413;BME280;2729;50.056;8.678;2023-02-23T05:58:57;99944.13;;;10.82;100.00
5413;BME280;2729;50.056;8.678;2023-02-23T06:01:25;99941.66;;;10.78;100.00
5413;BME280;2729;50.056;8.678;2023-02-23T06:03:51;99947.34;;;10.90;100.00
5413;BME280;2729;50.056;8.678;2023-02-23T06:06:18;99942.78;;;10.97;100.00
5413;BME280;2729;50.056;8.678;2023-02-23T06:08:44;99944.75;;;10.90;100.00
5413;BME280;2729;50.056;8.678;2023-02-23T06:11:10;99943.56;;;11.01;100.00
5413;BME280;2729;50.056;8.678;2023-02-23T06:13:36;99948.22;;;10.91;100.00
5413;BME280;2729;50.056;8.678;2023-02-23T06:16:02;99948.13;;;10.94;100.00
5413;BME280;2729;50.056;8.678;2023-02-23T06:18:28;99951.59;;;10.94;100.00
5413;BME280;2729;50.056;8.678;2023-02-23T06:20:57;99951.72;;;10.90;100.00
5413;BME280;2729;50.056;8.678;2023-02-23T06:23:25;99951.34;;;11.02;100.00
5413;BME280;2729;50.056;8.678;2023-02-23T06:25:51;99951.44;;;10.99;100.00
5413;BME280;2729;50.056;8.678;2023-02-23T06:28:17;99948.69;;;11.04;100.00
5413;BME280;2729;50.056;8.678;2023-02-23T06:30:43;99952.91;;;11.08;100.00
5413;BME280;2729;50.056;8.678;2023-02-23T06:33:09;99956.50;;;11.04;100.00
5413;BME280;2729;50.056;8.678;2023-02-23T06:35:35;99954.25;;;10.93;100.00
5413;BME280;2729;50.056;8.678;2023-02-23T06:38:03;99962.31;;;10.85;100.00
5413;BME280;2729;50.056;8.678;2023-02-23T06:40:31;99952.13;;;11.04;100.00
5413;BME280;2729;50.056;8.678;2023-02-23T06:42:57;99959.78;;;11.10;100.00
5413;BME280;2729;50.056;8.678;2023-02-23T06:45:24;99965.09;;;11.07;100.00
5413;BME280;2729;50.056;8.678;2023-02-23T06:47:50;99961.34;;;11.16;100.00
5413;BME280;2729;50.056;8.678;2023-02-23T06:50:18;99971.59;;;11.22;100.00
5413;BME280;2729;50.056;8.678;2023-02-23T06:52:44;99968.19;;;11.20;100.00
5413;BME280;2729;50.056;8.678;2023-02-23T06:55:10;99973.25;;;11.24;100.00
5413;BME280;2729;50.056;8.678;2023-02-23T06:57:37;99974.00;;;11.28;100.00
5413;BME280;2729;50.056;8.678;2023-02-23T07:00:04;99983.25;;;11.38;100.00
5413;BME280;2729;50.056;8.678;2023-02-23T07:02:30;99983.44;;;11.32;100.00
5413;BME280;2729;50.056;8.678;2023-02-23T07:04:56;99985.81;;;11.40;100.00
5413;BME280;2729;50.056;8.678;2023-02-23T07:07:23;99982.59;;;11.32;100.00
5413;BME280;2729;50.056;8.678;2023-02-23T07:09:49;99987.91;;;11.28;100.00
5413;BME280;2729;50.056;8.678;2023-02-23T07:12:16;99987.78;;;11.33;100.00
5413;BME280;2729;50.056;8.678;2023-02-23T07:14:42;99987.00;;;11.30;100.00
5413;BME280;2729;50.056;8.678;2023-02-23T07:17:07;99987.13;;;11.26;100.00
5413;BME280;2729;50.056;8.678;2023-02-23T07:19:33;99991.28;;;11.32;100.00
5413;BME280;2729;50.056;8.678;2023-02-23T07:21:59;99998.78;;;11.43;100.00
5413;BME280;2729;50.056;8.678;2023-02-23T07:24:25;99992.13;;;11.33;100.00
5413;BME280;2729;50.056;8.678;2023-02-23T07:26:53;100003.19;;;11.41;100.00
5413;BME280;2729;50.056;8.678;2023-02-23T07:29:19;99994.41;;;11.43;100.00
5413;BME280;2729;50.056;8.678;2023-02-23T07:31:45;99996.47;;;11.34;100.00
5413;BME280;2729;50.056;8.678;2023-02-23T07:34:11;99998.47;;;11.52;100.00
5413;BME280;2729;50.056;8.678;2023-02-23T07:36:37;99996.72;;;11.52;100.00
5413;BME280;2729;50.056;8.678;2023-02-23T07:39:03;100003.84;;;11.47;100.00
5413;BME280;2729;50.056;8.678;2023-02-23T07:41:30;100004.59;;;11.24;100.00
5413;BME280;2729;50.056;8.678;2023-02-23T07:43:57;100000.97;;;11.55;100.00
5413;BME280;2729;50.056;8.678;2023-02-23T07:46:24;100000.56;;;11.67;100.00
5413;BME280;2729;50.056;8.678;2023-02-23T07:48:51;100005.66;;;11.45;100.00
5413;BME280;2729;50.056;8.678;2023-02-23T07:51:22;100003.09;;;11.70;100.00
5413;BME280;2729;50.056;8.678;2023-02-23T07:53:48;100005.00;;;11.65;100.00
5413;BME280;2729;50.056;8.678;2023-02-23T07:56:15;100006.34;;;11.77;100.00
5413;BME280;2729;50.056;8.678;2023-02-23T07:58:43;100005.38;;;11.81;100.00
5413;BME280;2729;50.056;8.678;2023-02-23T08:01:11;100002.81;;;11.79;100.00
5413;BME280;2729;50.056;8.678;2023-02-23T08:03:37;100004.63;;;11.77;100.00
5413;BME280;2729;50.056;8.678;2023-02-23T08:06:04;100011.34;;;11.84;100.00
5413;BME280;2729;50.056;8.678;2023-02-23T08:08:30;100014.16;;;11.78;100.00
5413;BME280;2729;50.056;8.678;2023-02-23T08:11:01;100009.47;;;11.88;100.00
5413;BME280;2729;50.056;8.678;2023-02-23T08:13:28;100006.16;;;11.83;100.00
5413;BME280;2729;50.056;8.678;2023-02-23T08:15:54;100013.63;;;11.94;100.00
5413;BME280;2729;50.056;8.678;2023-02-23T08:18:20;100015.63;;;11.87;100.00
5413;BME280;2729;50.056;8.678;2023-02-23T08:20:46;100012.72;;;11.95;100.00
5413;BME280;2729;50.056;8.678;2023-02-23T08:23:12;100016.25;;;11.94;100.00
5413;BME280;2729;50.056;8.678;2023-02-23T08:25:38;100014.28;;;12.00;100.00
5413;BME280;2729;50.056;8.678;2023-02-23T08:28:04;100013.47;;;11.98;100.00
5413;BME280;2729;50.056;8.678;2023-02-23T08:30:32;100020.84;;;11.87;100.00
5413;BME280;2729;50.056;8.678;2023-02-23T08:32:58;100016.53;;;11.86;100.00
5413;BME280;2729;50.056;8.678;2023-02-23T08:35:27;100017.16;;;11.93;100.00
5413;BME280;2729;50.056;8.678;2023-02-23T08:37:52;100030.59;;;11.82;100.00
5413;BME280;2729;50.056;8.678;2023-02-23T08:40:19;100025.44;;;11.80;100.00
5413;BME280;2729;50.056;8.678;2023-02-23T08:43:08;100028.59;;;11.90;100.00
5413;BME280;2729;50.056;8.678;2023-02-23T08:45:58;100025.06;;;11.91;100.00
5413;BME280;2729;50.056;8.678;2023-02-23T08:48:24;100032.38;;;11.81;100.00
5413;BME280;2729;50.056;8.678;2023-02-23T08:50:55;100029.69;;;11.83;100.00
5413;BME280;2729;50.056;8.678;2023-02-23T08:53:20;100036.53;;;11.87;100.00
5413;BME280;2729;50.056;8.678;2023-02-23T08:55:47;100030.19;;;11.94;100.00
5413;BME280;2729;50.056;8.678;2023-02-23T08:58:13;100028.84;;;12.07;100.00
5413;BME280;2729;50.056;8.678;2023-02-23T09:00:39;100034.19;;;12.04;100.00
5413;BME280;2729;50.056;8.678;2023-02-23T09:03:06;100025.91;;;11.91;100.00
5413;BME280;2729;50.056;8.678;2023-02-23T09:05:32;100032.91;;;12.16;100.00
5413;BME280;2729;50.056;8.678;2023-02-23T09:08:01;100035.84;;;12.07;100.00
5413;BME280;2729;50.056;8.678;2023-02-23T09:10:27;100034.03;;;12.09;100.00
5413;BME280;2729;50.056;8.678;2023-02-23T09:12:54;100035.22;;;12.00;100.00
5413;BME280;2729;50.056;8.678;2023-02-23T09:15:21;100037.44;;;12.11;100.00
5413;BME280;2729;50.056;8.678;2023-02-23T09:17:47;100035.09;;;12.28;100.00
5413;BME280;2729;50.056;8.678;2023-02-23T09:20:14;100035.63;;;12.38;100.00
5413;BME280;2729;50.056;8.678;2023-02-23T09:22:44;100034.81;;;12.36;100.00
5413;BME280;2729;50.056;8.678;2023-02-23T09:25:17;100032.47;;;12.28;100.00
5413;BME280;2729;50.056;8.678;2023-02-23T09:27:44;100037.59;;;12.31;100.00
5413;BME280;2729;50.056;8.678;2023-02-23T09:30:11;100036.34;;;12.41;100.00
5413;BME280;2729;50.056;8.678;2023-02-23T09:32:39;100044.38;;;12.37;100.00
5413;BME280;2729;50.056;8.678;2023-02-23T09:35:06;100042.50;;;12.40;100.00
5413;BME280;2729;50.056;8.678;2023-02-23T09:37:35;100047.28;;;12.52;100.00
5413;BME280;2729;50.056;8.678;2023-02-23T09:40:01;100052.81;;;12.20;100.00
5413;BME280;2729;50.056;8.678;2023-02-23T09:42:36;100060.66;;;12.45;100.00
5413;BME280;2729;50.056;8.678;2023-02-23T09:45:25;100057.94;;;12.48;100.00
5413;BME280;2729;50.056;8.678;2023-02-23T09:48:10;100052.38;;;12.32;100.00
5413;BME280;2729;50.056;8.678;2023-02-23T09:50:38;100053.78;;;12.42;100.00
5413;BME280;2729;50.056;8.678;2023-02-23T09:53:26;100053.72;;;12.44;100.00
5413;BME280;2729;50.056;8.678;2023-02-23T09:55:56;100049.72;;;12.34;100.00
5413;BME280;2729;50.056;8.678;2023-02-23T09:58:25;100053.78;;;12.66;100.00
5413;BME280;2729;50.056;8.678;2023-02-23T10:06:17;100059.41;;;12.78;100.00
5413;BME280;2729;50.056;8.678;2023-02-23T10:11:54;100052.38;;;13.04;100.00
5413;BME280;2729;50.056;8.678;2023-02-23T10:14:55;100052.31;;;13.05;100.00
5413;BME280;2729;50.056;8.678;2023-02-23T10:17:46;100058.22;;;13.10;100.00
5413;BME280;2729;50.056;8.678;2023-02-23T10:22:46;100052.28;;;13.29;100.00
5413;BME280;2729;50.056;8.678;2023-02-23T10:25:25;100062.56;;;13.11;100.00
5413;BME280;2729;50.056;8.678;2023-02-23T10:27:54;100056.03;;;12.98;100.00
5413;BME280;2729;50.056;8.678;2023-02-23T10:30:30;100064.50;;;13.06;100.00
5413;BME280;2729;50.056;8.678;2023-02-23T10:33:20;100057.13;;;12.93;100.00
5413;BME280;2729;50.056;8.678;2023-02-23T10:35:50;100061.59;;;13.14;100.00
5413;BME280;2729;50.056;8.678;2023-02-23T10:38:19;100042.06;;;13.23;100.00
5413;BME280;2729;50.056;8.678;2023-02-23T10:40:50;100055.47;;;13.13;100.00
5413;BME280;2729;50.056;8.678;2023-02-23T10:43:18;100062.09;;;13.24;100.00
5413;BME280;2729;50.056;8.678;2023-02-23T10:45:50;100058.03;;;13.15;100.00
5413;BME280;2729;50.056;8.678;2023-02-23T10:48:19;100057.66;;;13.47;100.00
5413;BME280;2729;50.056;8.678;2023-02-23T10:50:48;100060.09;;;13.52;100.00
5413;BME280;2729;50.056;8.678;2023-02-23T10:53:18;100061.38;;;13.42;100.00
5413;BME280;2729;50.056;8.678;2023-02-23T10:56:12;100059.13;;;13.55;100.00
5413;BME280;2729;50.056;8.678;2023-02-23T11:01:30;100058.44;;;13.28;100.00
5413;BME280;2729;50.056;8.678;2023-02-23T11:04:11;100061.88;;;13.51;100.00
5413;BME280;2729;50.056;8.678;2023-02-23T11:06:40;100060.59;;;13.40;100.00
5413;BME280;2729;50.056;8.678;2023-02-23T11:09:27;100059.78;;;13.38;100.00
5413;BME280;2729;50.056;8.678;2023-02-23T11:11:56;100063.25;;;13.16;100.00
5413;BME280;2729;50.056;8.678;2023-02-23T11:14:24;100061.38;;;13.42;100.00
5413;BME280;2729;50.056;8.678;2023-02-23T11:16:54;100062.09;;;13.24;100.00
5413;BME280;2729;50.056;8.678;2023-02-23T11:19:30;100059.50;;;12.99;100.00
5413;BME280;2729;50.056;8.678;2023-02-23T11:21:57;100058.28;;;13.32;100.00
5413;BME280;2729;50.056;8.678;2023-02-23T11:24:27;100057.44;;;13.08;100.00
5413;BME280;2729;50.056;8.678;2023-02-23T11:27:00;100053.44;;;13.22;100.00
5413;BME280;2729;50.056;8.678;2023-02-23T11:29:45;100054.25;;;13.45;100.00
5413;BME280;2729;50.056;8.678;2023-02-23T11:32:18;100054.22;;;13.67;100.00
5413;BME280;2729;50.056;8.678;2023-02-23T11:34:45;100048.44;;;13.59;100.00
5413;BME280;2729;50.056;8.678;2023-02-23T11:39:53;100048.09;;;13.89;100.00
5413;BME280;2729;50.056;8.678;2023-02-23T11:42:24;100042.78;;;13.90;100.00
5413;BME280;2729;50.056;8.678;2023-02-23T11:45:17;100035.22;;;14.23;100.00
5413;BME280;2729;50.056;8.678;2023-02-23T11:47:47;100035.94;;;14.27;100.00
5413;BME280;2729;50.056;8.678;2023-02-23T11:50:29;100034.44;;;14.01;100.00
5413;BME280;2729;50.056;8.678;2023-02-23T11:55:24;100025.25;;;14.70;100.00
5413;BME280;2729;50.056;8.678;2023-02-23T11:57:50;100022.59;;;14.52;100.00
5413;BME280;2729;50.056;8.678;2023-02-23T12:00:25;100014.09;;;14.46;100.00
5413;BME280;2729;50.056;8.678;2023-02-23T12:02:57;100014.16;;;14.45;100.00
5413;BME280;2729;50.056;8.678;2023-02-23T12:05:27;100013.69;;;14.35;100.00
5413;BME280;2729;50.056;8.678;2023-02-23T12:07:58;100002.16;;;14.58;100.00
5413;BME280;2729;50.056;8.678;2023-02-23T12:10:32;100006.72;;;14.55;100.00
5413;BME280;2729;50.056;8.678;2023-02-23T12:13:24;100004.16;;;14.53;100.00
5413;BME280;2729;50.056;8.678;2023-02-23T12:15:56;99998.19;;;14.87;100.00
5413;BME280;2729;50.056;8.678;2023-02-23T12:18:41;99991.53;;;14.80;100.00
5413;BME280;2729;50.056;8.678;2023-02-23T12:21:18;99998.06;;;14.71;100.00
5413;BME280;2729;50.056;8.678;2023-02-23T12:23:50;99991.53;;;14.80;100.00
5413;BME280;2729;50.056;8.678;2023-02-23T12:26:20;99988.53;;;14.69;100.00
5413;BME280;2729;50.056;8.678;2023-02-23T12:29:19;99987.81;;;14.84;100.00
5413;BME280;2729;50.056;8.678;2023-02-23T12:31:58;99987.13;;;14.80;100.00
5413;BME280;2729;50.056;8.678;2023-02-23T12:34:54;99986.94;;;15.02;100.00
5413;BME280;2729;50.056;8.678;2023-02-23T12:39:56;99984.28;;;14.66;100.00
5413;BME280;2729;50.056;8.678;2023-02-23T12:42:40;99989.09;;;14.75;100.00
5413;BME280;2729;50.056;8.678;2023-02-23T12:45:16;99983.63;;;14.61;100.00
5413;BME280;2729;50.056;8.678;2023-02-23T12:51:08;99981.72;;;14.46;100.00
5413;BME280;2729;50.056;8.678;2023-02-23T12:53:43;99980.53;;;14.33;100.00
5413;BME280;2729;50.056;8.678;2023-02-23T12:56:24;99979.31;;;14.60;100.00
5413;BME280;2729;50.056;8.678;2023-02-23T13:01:58;99980.31;;;14.58;100.00
5413;BME280;2729;50.056;8.678;2023-02-23T13:04:34;99978.66;;;14.74;100.00
5413;BME280;2729;50.056;8.678;2023-02-23T13:10:23;99974.19;;;14.76;100.00
5413;BME280;2729;50.056;8.678;2023-02-23T13:15:48;99977.69;;;14.58;100.00
5413;BME280;2729;50.056;8.678;2023-02-23T13:18:28;99977.53;;;14.61;100.00
5413;BME280;2729;50.056;8.678;2023-02-23T13:21:07;99984.41;;;14.44;100.00
5413;BME280;2729;50.056;8.678;2023-02-23T13:26:41;99973.56;;;14.52;100.00
5413;BME280;2729;50.056;8.678;2023-02-23T13:29:25;99970.22;;;14.48;100.00
5413;BME280;2729;50.056;8.678;2023-02-23T13:32:01;99973.56;;;14.52;100.00
5413;BME280;2729;50.056;8.678;2023-02-23T13:34:39;99979.88;;;14.28;100.00
5413;BME280;2729;50.056;8.678;2023-02-23T13:37:08;99979.94;;;14.46;100.00
5413;BME280;2729;50.056;8.678;2023-02-23T13:45:20;99970.13;;;14.88;100.00
5413;BME280;2729;50.056;8.678;2023-02-23T13:47:57;99969.09;;;14.73;100.00
5413;BME280;2729;50.056;8.678;2023-02-23T13:50:49;99965.38;;;14.77;100.00
5413;BME280;2729;50.056;8.678;2023-02-23T13:53:34;99969.97;;;15.09;100.00
5413;BME280;2729;50.056;8.678;2023-02-23T13:56:15;99967.00;;;14.98;100.00
5413;BME280;2729;50.056;8.678;2023-02-23T13:58:58;99968.41;;;15.05;100.00
5413;BME280;2729;50.056;8.678;2023-02-23T14:01:35;99971.22;;;14.84;100.00
5413;BME280;2729;50.056;8.678;2023-02-23T14:04:05;99969.22;;;14.70;100.00
5413;BME280;2729;50.056;8.678;2023-02-23T14:06:39;99973.19;;;14.97;100.00
5413;BME280;2729;50.056;8.678;2023-02-23T14:09:15;99970.06;;;14.89;100.00
5413;BME280;2729;50.056;8.678;2023-02-23T14:11:49;99975.25;;;15.27;100.00
5413;BME280;2729;50.056;8.678;2023-02-23T14:22:26;99970.59;;;15.15;100.00
5413;BME280;2729;50.056;8.678;2023-02-23T14:28:00;99965.50;;;14.93;100.00
5413;BME280;2729;50.056;8.678;2023-02-23T14:30:28;99975.13;;;14.75;100.00
5413;BME280;2729;50.056;8.678;2023-02-23T14:33:00;99965.59;;;14.54;100.00
5413;BME280;2729;50.056;8.678;2023-02-23T14:38:16;99969.16;;;14.53;100.00
5413;BME280;2729;50.056;8.678;2023-02-23T14:40:50;99961.19;;;14.92;100.00
5413;BME280;2729;50.056;8.678;2023-02-23T14:46:16;99960.06;;;14.60;100.00
5413;BME280;2729;50.056;8.678;2023-02-23T14:48:44;99959.00;;;14.64;100.00
5413;BME280;2729;50.056;8.678;2023-02-23T14:51:30;99969.50;;;14.64;100.00
5413;BME280;2729;50.056;8.678;2023-02-23T14:53:58;99970.78;;;14.74;100.00
5413;BME280;2729;50.056;8.678;2023-02-23T14:56:25;99982.94;;;14.37;100.00
5413;BME280;2729;50.056;8.678;2023-02-23T14:58:54;99979.94;;;14.65;100.00
5413;BME280;2729;50.056;8.678;2023-02-23T15:04:12;99976.91;;;14.56;100.00
5413;BME280;2729;50.056;8.678;2023-02-23T15:06:39;99975.13;;;14.56;100.00